Time;durP1;ratioP1;P1;durP2;ratioP2;P2;SDS_P1;SDS_P2;PMS_P1;PMS_P2;Temp;Humidity;BMP_temperature;BMP_pressure;BME280_temperature;BME280_humidity;BME280_pressure;Samples;Min_cycle;Max_cycle;Signal;HPM_P1;HPM_P2
2021/03/25 00:00:18;;;;;;;48.50;25.52;;;;;;;3.39;75.65;100820.97;5098023;28;20096;-71
2021/03/25 00:02:43;;;;;;;51.30;24.73;;;;;;;3.52;75.09;100815.44;5116725;28;20051;-71
2021/03/25 00:05:11;;;;;;;42.67;23.30;;;;;;;3.75;74.10;100826.31;5097783;28;20067;-71
2021/03/25 00:07:36;;;;;;;45.03;25.38;;;;;;;3.35;74.19;100771.81;5116381;28;20367;-71
2021/03/25 00:10:07;;;;;;;42.83;23.58;;;;;;;3.76;74.38;100841.25;5098470;28;20085;-71
2021/03/25 00:12:32;;;;;;;41.13;23.35;;;;;;;3.73;74.30;100836.03;5116521;28;20042;-71
2021/03/25 00:14:58;;;;;;;43.67;23.63;;;;;;;3.27;74.74;100792.22;5097882;28;20043;-71
2021/03/25 00:17:23;;;;;;;44.83;24.23;;;;;;;3.42;74.74;100815.63;5080442;28;20048;-72
2021/03/25 00:19:49;;;;;;;44.47;24.08;;;;;;;3.50;75.35;100843.63;5115965;28;20036;-71
2021/03/25 00:22:14;;;;;;;46.17;23.90;;;;;;;3.47;75.05;100846.28;5097549;28;20126;-72
2021/03/25 00:24:40;;;;;;;46.17;24.25;;;;;;;3.49;75.25;100841.88;5097851;28;20039;-68
2021/03/25 00:27:06;;;;;;;45.25;23.15;;;;;;;3.06;75.54;100796.19;5115924;28;20035;-68
2021/03/25 00:29:31;;;;;;;46.22;24.42;;;;;;;3.20;76.47;100835.44;5098103;28;20070;-70
2021/03/25 00:31:57;;;;;;;45.67;23.75;;;;;;;3.25;76.27;100844.13;5097607;28;20098;-71
2021/03/25 00:34:23;;;;;;;45.53;24.20;;;;;;;2.98;75.57;100781.41;5097150;28;20027;-70
2021/03/25 00:36:48;;;;;;;46.15;25.15;;;;;;;3.01;76.39;100818.28;5116099;28;20470;-70
2021/03/25 00:39:14;;;;;;;44.83;24.25;;;;;;;3.08;76.50;100843.59;5115881;28;20118;-70
2021/03/25 00:41:39;;;;;;;43.22;23.70;;;;;;;2.91;76.95;100822.00;5115757;28;20031;-69
2021/03/25 00:44:12;;;;;;;44.55;23.80;;;;;;;2.87;76.81;100815.91;5080714;28;20039;-69
2021/03/25 00:46:38;;;;;;;48.58;25.17;;;;;;;2.94;76.85;100835.97;5115884;28;20042;-69
2021/03/25 00:49:05;;;;;;;50.35;25.23;;;;;;;3.05;76.45;100833.97;5115647;28;20393;-70
2021/03/25 00:51:31;;;;;;;47.88;25.73;;;;;;;3.23;75.93;100832.75;5080124;28;20035;-70
2021/03/25 00:53:56;;;;;;;47.55;25.13;;;;;;;3.27;75.47;100836.16;5115599;28;20028;-67
2021/03/25 00:56:22;;;;;;;45.28;23.50;;;;;;;2.79;75.83;100760.72;5114987;28;20042;-67
2021/03/25 00:58:48;;;;;;;45.40;24.27;;;;;;;3.01;76.99;100829.69;5097249;28;20043;-67
2021/03/25 01:01:13;;;;;;;47.30;25.05;;;;;;;3.05;76.66;100836.63;5114858;28;20564;-67
2021/03/25 01:03:39;;;;;;;47.13;25.40;;;;;;;2.73;76.89;100774.03;5096971;28;20036;-67
2021/03/25 01:06:05;;;;;;;47.45;24.92;;;;;;;2.81;77.12;100784.41;5115401;28;20059;-67
2021/03/25 01:08:31;;;;;;;43.45;24.35;;;;;;;3.03;76.56;100824.38;5096608;28;20031;-67
2021/03/25 01:11:04;;;;;;;45.72;24.77;;;;;;;3.14;76.39;100811.84;5115305;28;20032;-66
2021/03/25 01:13:40;;;;;;;46.50;24.90;;;;;;;2.94;76.74;100819.28;5114749;28;20128;-66
2021/03/25 01:16:09;;;;;;;43.30;22.83;;;;;;;2.93;76.35;100830.72;5115017;28;20028;-67
2021/03/25 01:18:36;;;;;;;45.70;24.38;;;;;;;2.77;77.12;100809.94;5114946;28;20047;-67
2021/03/25 01:21:02;;;;;;;41.25;23.48;;;;;;;2.95;77.09;100839.47;5115047;28;20040;-66
2021/03/25 01:23:28;;;;;;;49.65;25.10;;;;;;;2.77;77.16;100830.16;5096508;28;20478;-66
2021/03/25 01:25:53;;;;;;;44.90;24.13;;;;;;;2.58;76.72;100805.91;5115036;28;20093;-66
2021/03/25 01:28:19;;;;;;;46.13;24.52;;;;;;;2.63;77.95;100819.03;5114659;28;20078;-67
2021/03/25 01:30:46;;;;;;;44.65;24.02;;;;;;;2.70;77.93;100824.16;5079988;28;20081;-67
2021/03/25 01:33:15;;;;;;;46.00;24.63;;;;;;;2.58;77.81;100801.53;5096515;28;20035;-70
2021/03/25 01:35:42;;;;;;;44.40;23.58;;;;;;;2.81;76.82;100800.22;5114807;28;20386;-68
2021/03/25 01:38:10;;;;;;;44.95;24.27;;;;;;;2.88;75.88;100789.50;5096142;28;20031;-67
2021/03/25 01:40:47;;;;;;;46.90;24.33;;;;;;;3.25;75.55;100822.16;5114318;28;20074;-67
2021/03/25 01:43:21;;;;;;;50.17;25.20;;;;;;;3.15;75.85;100826.75;5113985;28;20023;-68
2021/03/25 01:46:19;;;;;;;43.97;25.15;;;;;;;3.12;76.24;100818.91;5114313;28;20024;-68
2021/03/25 01:48:48;;;;;;;42.53;24.30;;;;;;;2.98;76.17;100791.97;5110192;28;20043;-68
2021/03/25 01:51:19;;;;;;;49.88;26.13;;;;;;;2.83;76.88;100808.97;5113775;28;20023;-68
2021/03/25 01:54:26;;;;;;;45.40;25.05;;;;;;;2.98;76.55;100824.44;5114252;28;20453;-71
2021/03/25 01:57:01;;;;;;;49.92;24.45;;;;;;;3.01;76.59;100820.91;5062361;28;20390;-70
2021/03/25 01:59:40;;;;;;;46.60;23.83;;;;;;;2.90;76.63;100793.91;5113216;28;20466;-70
2021/03/25 02:02:13;;;;;;;47.13;24.35;;;;;;;3.10;76.04;100824.22;5096235;28;20424;-71
2021/03/25 02:05:15;;;;;;;41.17;24.23;;;;;;;3.09;76.06;100813.72;5114502;28;20031;-70
2021/03/25 02:07:49;;;;;;;49.60;25.15;;;;;;;2.87;76.46;100816.75;5095864;28;20482;-70
2021/03/25 02:10:30;;;;;;;49.63;25.23;;;;;;;2.93;76.56;100821.06;5113911;28;20035;-70
2021/03/25 02:13:13;;;;;;;50.20;25.90;;;;;;;3.02;76.16;100814.75;5113877;28;20386;-69
2021/03/25 02:15:44;;;;;;;;;;;;;;;3.10;75.78;100813.69;5114537;28;20031;-68
2021/03/25 02:18:42;;;;;;;43.90;23.33;;;;;;;3.06;76.29;100813.75;5113698;28;19916;-70
2021/03/25 02:21:46;;;;;;;51.78;24.73;;;;;;;3.03;76.29;100812.06;5113882;28;20054;-69
2021/03/25 02:24:20;;;;;;;46.30;25.70;;;;;;;3.01;76.08;100807.72;5095497;28;20056;-69
2021/03/25 02:26:49;;;;;;;45.95;24.83;;;;;;;3.02;75.98;100798.94;5113619;28;20377;-71
2021/03/25 02:29:33;;;;;;;44.17;24.70;;;;;;;3.12;75.99;100803.97;5095288;28;20110;-74
2021/03/25 02:32:04;;;;;;;44.88;24.75;;;;;;;2.92;76.09;100765.75;5113689;28;20077;-70
2021/03/25 02:34:36;;;;;;;47.63;24.88;;;;;;;2.98;76.36;100791.97;5113189;28;20054;-68
2021/03/25 02:37:26;;;;;;;47.47;24.08;;;;;;;2.95;76.06;100789.41;5113736;28;20035;-70
2021/03/25 02:40:11;;;;;;;49.28;25.05;;;;;;;2.93;76.76;100815.78;5113518;28;20035;-68
2021/03/25 02:42:47;;;;;;;39.25;23.55;;;;;;;2.91;76.78;100790.38;5113290;28;20023;-71
2021/03/25 02:45:34;;;;;;;43.97;23.90;;;;;;;2.96;76.33;100788.50;5113968;28;20450;-71
2021/03/25 02:48:07;;;;;;;43.75;23.17;;;;;;;3.09;76.61;100801.41;5113670;28;20027;-70
2021/03/25 02:50:39;;;;;;;45.00;24.20;;;;;;;3.19;76.12;100796.81;5113209;28;20483;-70
2021/03/25 02:53:11;;;;;;;49.85;25.55;;;;;;;3.12;76.11;100803.09;5113731;28;20046;-70
2021/03/25 02:55:36;;;;;;;44.67;23.80;;;;;;;3.08;76.10;100783.81;5113067;28;20031;-68
2021/03/25 02:58:12;;;;;;;45.55;24.88;;;;;;;3.15;76.31;100795.13;5095069;28;20031;-69
2021/03/25 03:00:47;;;;;;;46.20;24.63;;;;;;;3.21;76.49;100816.09;5113044;28;20106;-68
2021/03/25 03:03:21;;;;;;;49.55;25.15;;;;;;;2.85;76.98;100757.97;5113391;28;20031;-69
2021/03/25 03:05:49;;;;;;;43.83;23.88;;;;;;;3.36;76.22;100815.75;5095048;28;20121;-68
2021/03/25 03:08:24;;;;;;;43.97;23.13;;;;;;;3.38;76.27;100816.59;5113769;28;20150;-68
2021/03/25 03:10:59;;;;;;;44.65;24.50;;;;;;;3.41;76.45;100815.66;5113890;28;20039;-68
2021/03/25 03:13:28;;;;;;;44.90;23.00;;;;;;;3.45;75.99;100817.31;5117059;28;20123;-70
2021/03/25 03:16:00;;;;;;;45.10;23.20;;;;;;;3.63;75.30;100818.69;5117293;28;20489;-70
2021/03/25 03:18:36;;;;;;;42.20;23.38;;;;;;;3.49;75.15;100791.75;5116892;28;20044;-70
2021/03/25 03:21:07;;;;;;;46.50;23.30;;;;;;;3.76;74.38;100813.97;5117250;28;20027;-70
2021/03/25 03:23:35;;;;;;;42.65;22.08;;;;;;;3.73;74.82;100821.06;5116991;28;20595;-69
2021/03/25 03:26:05;;;;;;;42.67;22.77;;;;;;;3.57;74.53;100792.44;5117320;28;20111;-70
2021/03/25 03:28:39;;;;;;;42.80;23.10;;;;;;;3.71;74.58;100822.03;5117046;28;20073;-71
2021/03/25 03:31:10;;;;;;;39.33;22.52;;;;;;;3.77;74.30;100821.91;5117141;28;20028;-71
2021/03/25 03:33:53;;;;;;;46.30;23.73;;;;;;;3.68;74.38;100820.31;5117271;28;20027;-70
2021/03/25 03:36:21;;;;;;;43.83;22.27;;;;;;;3.81;74.29;100823.53;5098571;28;20118;-80
2021/03/25 03:39:09;;;;;;;43.78;23.00;;;;;;;3.82;74.26;100825.28;5116990;28;20272;-70
2021/03/25 03:41:46;;;;;;;46.97;22.02;;;;;;;3.65;74.87;100830.06;5116773;28;20066;-71
2021/03/25 03:44:17;;;;;;;43.42;22.73;;;;;;;3.65;74.59;100796.63;5116808;28;20478;-72
2021/03/25 03:46:44;;;;;;;43.83;23.23;;;;;;;3.82;74.43;100820.00;5098391;28;20020;-72
2021/03/25 03:49:15;;;;;;;46.42;23.17;;;;;;;3.76;74.79;100820.13;5081905;28;20092;-71
2021/03/25 03:51:49;;;;;;;43.83;23.77;;;;;;;3.65;75.18;100823.00;5098082;28;20036;-71
2021/03/25 03:54:15;;;;;;;46.70;24.50;;;;;;;3.27;75.66;100778.16;5098075;28;20028;-71
2021/03/25 03:56:47;;;;;;;44.88;22.65;;;;;;;3.73;74.69;100815.78;5116343;28;20039;-70
2021/03/25 03:59:57;;;;;;;45.50;22.45;;;;;;;3.83;74.23;100803.25;5116533;28;20539;-70
2021/03/25 04:02:29;;;;;;;37.05;20.38;;;;;;;4.05;73.74;100822.06;5112733;28;20398;-71
2021/03/25 04:05:24;;;;;;;41.92;22.15;;;;;;;4.03;73.80;100826.53;5116238;28;20072;-70
2021/03/25 04:08:08;;;;;;;42.10;21.65;;;;;;;3.87;74.35;100806.72;5114312;28;20043;-69
2021/03/25 04:10:41;;;;;;;41.08;22.08;;;;;;;3.95;74.04;100813.50;5116396;28;20036;-70
2021/03/25 04:13:11;;;;;;;46.58;22.98;;;;;;;3.93;74.27;100819.75;5116149;28;20035;-72
2021/03/25 04:15:42;;;;;;;41.78;22.00;;;;;;;3.93;74.29;100815.31;5116267;28;20076;-70
2021/03/25 04:18:16;;;;;;;40.45;22.25;;;;;;;3.92;74.46;100816.22;5115663;28;20127;-69
2021/03/25 04:20:46;;;;;;;41.55;22.27;;;;;;;3.90;74.59;100818.06;5114583;28;20027;-71
2021/03/25 04:23:14;;;;;;;42.80;22.75;;;;;;;3.94;74.73;100816.19;5096032;28;20023;-71
2021/03/25 04:25:44;;;;;;;48.10;23.85;;;;;;;3.92;74.66;100810.97;5114582;28;20120;-70
2021/03/25 04:28:21;;;;;;;44.40;23.23;;;;;;;3.84;74.16;100802.34;5115027;28;20035;-70
2021/03/25 04:30:52;;;;;;;43.05;22.45;;;;;;;4.05;73.97;100824.72;5096784;28;20055;-70
2021/03/25 04:33:20;;;;;;;44.35;23.55;;;;;;;3.87;74.68;100831.31;5096618;28;20031;-69
2021/03/25 04:35:47;;;;;;;41.20;22.33;;;;;;;3.79;74.38;100821.84;5114364;28;20027;-71
2021/03/25 04:38:18;;;;;;;43.75;22.45;;;;;;;3.71;74.69;100833.44;5096530;28;20036;-69
2021/03/25 04:40:44;;;;;;;42.85;22.10;;;;;;;3.61;75.28;100824.00;5114160;28;20463;-70
2021/03/25 04:43:15;;;;;;;39.53;22.83;;;;;;;3.36;75.57;100788.50;5114387;28;20036;-71
2021/03/25 04:45:50;;;;;;;45.45;23.25;;;;;;;3.53;75.81;100809.25;5096852;28;20579;-71
2021/03/25 04:48:21;;;;;;;42.17;23.60;;;;;;;3.48;75.29;100798.81;5096158;28;20038;-73
2021/03/25 04:50:57;;;;;;;48.13;24.08;;;;;;;3.63;75.34;100834.50;5114057;28;20066;-71
2021/03/25 04:53:32;;;;;;;45.05;22.85;;;;;;;3.63;75.18;100837.16;5095876;28;20024;-85
2021/03/25 04:55:58;;;;;;;45.88;23.45;;;;;;;3.85;74.18;100835.75;5114482;28;20055;-71
2021/03/25 04:58:30;;;;;;;46.47;23.42;;;;;;;3.80;73.77;100835.00;5095878;28;20035;-76
2021/03/25 05:01:23;;;;;;;42.72;22.13;;;;;;;3.80;74.21;100844.69;5114169;28;20031;-70
2021/03/25 05:03:54;;;;;;;41.65;22.85;;;;;;;3.65;75.09;100853.81;5114441;28;20070;-70
2021/03/25 05:06:24;;;;;;;45.00;23.10;;;;;;;3.55;75.02;100841.72;5114520;28;20082;-69
2021/03/25 05:08:52;;;;;;;46.67;23.73;;;;;;;3.62;75.03;100848.59;5114362;28;20119;-70
2021/03/25 05:11:28;;;;;;;42.40;22.50;;;;;;;3.75;74.53;100850.06;5096391;28;20082;-71
2021/03/25 05:13:58;;;;;;;43.58;22.27;;;;;;;3.66;74.81;100845.00;5114110;28;20671;-70
2021/03/25 05:16:34;;;;;;;42.38;21.83;;;;;;;3.67;74.46;100857.31;5087909;28;689673;-69
2021/03/25 05:19:07;;;;;;;41.47;22.58;;;;;;;3.77;74.41;100855.34;5082495;28;20089;-70
2021/03/25 05:21:54;;;;;;;42.95;22.00;;;;;;;3.94;73.13;100855.78;5114554;28;20075;-70
2021/03/25 05:24:43;;;;;;;42.25;20.75;;;;;;;3.96;72.75;100841.66;5114893;28;20063;-71
2021/03/25 05:27:11;;;;;;;41.67;22.05;;;;;;;4.03;72.86;100855.56;5114812;28;20485;-71
2021/03/25 05:29:39;;;;;;;39.72;21.67;;;;;;;3.83;73.58;100852.53;5114335;28;20023;-71
2021/03/25 05:32:08;;;;;;;41.83;22.00;;;;;;;3.88;73.06;100850.66;5114364;28;20023;-69
2021/03/25 05:34:36;;;;;;;43.20;22.35;;;;;;;3.73;73.01;100807.88;5113486;28;20032;-71
2021/03/25 05:37:02;;;;;;;43.08;21.58;;;;;;;3.91;72.54;100832.13;5113846;28;20047;-69
2021/03/25 05:39:32;;;;;;;42.83;21.95;;;;;;;4.11;72.77;100853.63;5078928;28;20126;-81
2021/03/25 05:42:21;;;;;;;37.40;20.88;;;;;;;4.26;72.12;100863.81;5114464;28;20439;-67
2021/03/25 05:45:24;;;;;;;42.67;21.52;;;;;;;4.34;71.75;100855.69;5113824;28;20023;-68
2021/03/25 05:48:10;;;;;;;40.60;21.35;;;;;;;4.24;72.07;100870.03;5095724;28;20339;-68
2021/03/25 05:50:51;;;;;;;40.85;21.33;;;;;;;4.24;72.28;100865.59;5095808;28;20067;-72
2021/03/25 05:53:22;;;;;;;41.80;22.48;;;;;;;4.18;72.98;100871.06;5113800;28;20061;-71
2021/03/25 05:56:26;;;;;;;41.33;22.55;;;;;;;4.28;73.23;100874.34;5114058;28;20111;-70
2021/03/25 05:59:01;;;;;;;45.22;22.38;;;;;;;4.32;72.73;100870.72;5065657;28;20035;-71
2021/03/25 06:01:27;;;;;;;39.13;21.95;;;;;;;4.40;73.04;100871.38;5113981;28;20077;-69
2021/03/25 06:04:04;;;;;;;45.47;22.00;;;;;;;4.50;72.25;100862.31;5113547;28;20489;-71
2021/03/25 06:06:41;;;;;;;46.97;21.73;;;;;;;4.73;71.40;100864.41;5113827;28;20035;-70
2021/03/25 06:09:22;;;;;;;40.60;21.92;;;;;;;4.92;70.68;100861.22;5113672;28;20027;-68
2021/03/25 06:11:58;;;;;;;43.22;22.75;;;;;;;4.82;70.48;100871.19;5113716;28;20371;-70
2021/03/25 06:15:11;;;;;;;43.13;22.42;;;;;;;4.77;71.38;100873.09;5114005;28;20035;-69
2021/03/25 06:17:55;;;;;;;43.30;22.48;;;;;;;4.72;71.46;100874.97;5095371;28;20055;-70
2021/03/25 06:20:54;;;;;;;39.70;21.75;;;;;;;4.66;71.17;100856.66;5114024;28;20024;-69
2021/03/25 06:23:48;;;;;;;38.60;22.42;;;;;;;4.64;70.93;100850.56;5067156;28;20051;-70
2021/03/25 06:26:16;;;;;;;40.30;21.98;;;;;;;4.95;70.64;100880.53;5113862;28;20027;-71
2021/03/25 06:28:51;;;;;;;41.70;21.70;;;;;;;5.11;69.92;100881.81;5113557;28;20035;-71
2021/03/25 06:31:29;;;;;;;41.28;22.27;;;;;;;5.38;68.94;100884.63;5113791;28;20038;-72
2021/03/25 06:34:06;;;;;;;45.28;22.58;;;;;;;5.38;69.04;100885.47;5120315;28;20369;-73
2021/03/25 06:36:43;;;;;;;43.13;22.38;;;;;;;5.17;68.41;100831.41;5116574;28;20145;-73
2021/03/25 06:39:33;;;;;;;37.22;19.50;;;;;;;5.44;68.03;100890.59;5113657;28;20110;-72
2021/03/25 06:42:07;;;;;;;35.13;19.55;;;;;;;5.56;67.58;100899.97;5113255;28;20436;-72
2021/03/25 06:45:09;;;;;;;36.35;19.50;;;;;;;5.55;65.96;100900.88;5110101;28;20235;-73
2021/03/25 06:47:44;;;;;;;37.25;20.40;;;;;;;5.56;66.02;100886.72;5047047;28;20111;-73
2021/03/25 06:50:16;;;;;;;35.58;19.40;;;;;;;5.84;65.04;100894.72;5086920;28;20039;-72
2021/03/25 06:52:42;;;;;;;36.97;20.05;;;;;;;5.80;64.67;100898.38;5074787;28;20024;-70
2021/03/25 06:55:21;;;;;;;32.42;17.73;;;;;;;5.88;62.46;100879.59;5092638;28;20080;-70
2021/03/25 06:57:58;;;;;;;30.05;16.70;;;;;;;5.96;62.53;100874.97;5092804;28;20035;-73
2021/03/25 07:00:27;;;;;;;31.13;17.40;;;;;;;5.72;60.80;100837.72;5074593;28;20123;-73
2021/03/25 07:02:56;;;;;;;31.55;18.02;;;;;;;6.17;61.21;100895.47;5092609;28;20032;-71
2021/03/25 07:05:31;;;;;;;32.10;15.75;;;;;;;6.31;57.90;100901.22;5092710;28;20032;-71
2021/03/25 07:08:03;;;;;;;24.73;14.23;;;;;;;6.23;56.61;100887.34;5092498;28;20050;-72
2021/03/25 07:10:29;;;;;;;28.47;15.20;;;;;;;6.44;54.29;100898.16;5092650;28;20077;-74
2021/03/25 07:13:04;;;;;;;24.52;13.07;;;;;;;6.46;53.73;100893.66;5074391;28;20028;-70
2021/03/25 07:15:32;;;;;;;32.80;15.05;;;;;;;6.64;53.92;100890.41;5089215;28;20035;-66
2021/03/25 07:18:02;;;;;;;27.63;14.10;;;;;;;6.84;52.23;100905.63;5112778;28;20048;-69
2021/03/25 07:20:35;;;;;;;24.58;14.18;;;;;;;6.87;51.59;100895.78;5093939;28;20107;-70
2021/03/25 07:23:08;;;;;;;27.70;14.88;;;;;;;7.09;51.91;100905.66;5112951;28;20032;-72
2021/03/25 07:25:38;;;;;;;28.55;14.93;;;;;;;7.04;51.95;100891.66;5113094;28;20443;-71
2021/03/25 07:28:15;;;;;;;28.52;15.65;;;;;;;7.21;51.80;100902.53;5112821;28;20047;-72
2021/03/25 07:30:47;;;;;;;31.13;16.02;;;;;;;7.31;50.99;100906.59;5112811;28;20422;-75
2021/03/25 07:33:22;;;;;;;32.10;17.10;;;;;;;7.43;51.31;100911.47;5112520;28;20386;-75
2021/03/25 07:36:05;;;;;;;30.55;16.30;;;;;;;7.45;50.71;100904.31;5113038;28;20031;-71
2021/03/25 07:38:34;;;;;;;26.77;15.63;;;;;;;7.21;51.10;100852.13;5112844;28;20063;-70
2021/03/25 07:41:15;;;;;;;30.67;16.65;;;;;;;7.76;50.97;100908.47;5112387;28;20069;-70
2021/03/25 07:44:07;;;;;;;28.20;17.85;;;;;;;7.90;50.67;100905.28;5112826;28;20043;-72
2021/03/25 07:46:32;;;;;;;31.52;16.38;;;;;;;7.93;49.21;100908.69;5112678;28;20035;-72
2021/03/25 07:49:07;;;;;;;30.83;16.42;;;;;;;7.97;48.19;100912.97;5112816;28;20043;-77
2021/03/25 07:51:53;;;;;;;28.83;16.25;;;;;;;8.10;47.59;100905.34;5112198;28;20499;-77
2021/03/25 07:54:41;;;;;;;28.77;15.15;;;;;;;8.22;47.00;100902.25;5112365;28;20027;-74
2021/03/25 07:57:14;;;;;;;28.40;14.95;;;;;;;8.11;46.68;100903.59;5094759;28;20062;-76
2021/03/25 07:59:42;;;;;;;29.43;15.57;;;;;;;8.20;46.78;100903.19;5116317;28;20039;-74
2021/03/25 08:02:20;;;;;;;28.13;13.80;;;;;;;8.26;46.08;100909.16;5115960;28;20019;-78
2021/03/25 08:04:45;;;;;;;29.80;14.45;;;;;;;8.41;45.00;100902.41;5116349;28;20027;-75
2021/03/25 08:07:11;;;;;;;24.27;13.90;;;;;;;8.69;44.03;100896.81;5116523;28;20034;-73
2021/03/25 08:09:53;;;;;;;22.42;12.65;;;;;;;8.82;42.08;100897.13;5099359;28;20045;-73
2021/03/25 08:12:36;;;;;;;25.92;12.45;;;;;;;8.78;40.71;100887.53;5098826;28;20059;-74
2021/03/25 08:15:08;;;;;;;24.52;11.63;;;;;;;8.71;40.59;100904.72;5115757;28;20104;-74
2021/03/25 08:17:44;;;;;;;19.80;11.98;;;;;;;8.58;40.70;100899.88;5114576;28;20055;-73
2021/03/25 08:20:42;;;;;;;20.40;10.88;;;;;;;8.25;39.96;100842.78;5115494;28;20030;-75
2021/03/25 08:23:38;;;;;;;17.77;9.88;;;;;;;8.56;37.03;100891.09;5115148;28;20042;-74
2021/03/25 08:26:15;;;;;;;16.27;9.15;;;;;;;8.43;37.53;100884.56;5115831;28;20053;-73
2021/03/25 08:29:02;;;;;;;18.35;9.60;;;;;;;8.45;37.95;100887.16;5115954;28;20027;-77
2021/03/25 08:31:38;;;;;;;15.10;8.93;;;;;;;8.42;37.43;100877.53;5115796;28;20035;-75
2021/03/25 08:34:26;;;;;;;16.75;9.68;;;;;;;8.25;36.98;100864.03;5097507;28;20054;-77
2021/03/25 08:37:14;;;;;;;17.70;9.73;;;;;;;8.36;37.38;100882.22;5115729;28;20092;-75
2021/03/25 08:39:51;;;;;;;20.50;9.57;;;;;;;8.33;37.15;100867.25;5115562;28;20034;-75
2021/03/25 08:42:32;;;;;;;19.13;9.45;;;;;;;8.13;37.78;100816.72;5097360;28;20031;-75
2021/03/25 08:45:24;;;;;;;18.63;10.20;;;;;;;8.42;38.24;100874.00;5115680;28;20050;-74
2021/03/25 08:48:03;;;;;;;19.77;10.30;;;;;;;8.13;37.55;100820.22;5115531;28;20032;-75
2021/03/25 08:50:46;;;;;;;18.10;8.75;;;;;;;8.33;35.99;100872.56;5115686;28;20031;-74
2021/03/25 08:53:35;;;;;;;17.25;9.57;;;;;;;8.46;35.87;100879.13;5115831;28;20027;-75
2021/03/25 08:56:08;;;;;;;14.02;8.68;;;;;;;8.50;34.90;100870.09;5115001;28;20035;-79
2021/03/25 08:58:37;;;;;;;13.95;7.55;;;;;;;8.72;34.22;100874.50;5113712;28;20057;-71
2021/03/25 09:01:12;;;;;;;16.17;7.72;;;;;;;8.74;33.92;100875.31;5115985;28;20066;-76
2021/03/25 09:03:43;;;;;;;13.93;7.43;;;;;;;8.56;32.85;100824.63;5114984;28;20023;-74
2021/03/25 09:06:28;;;;;;;12.73;7.10;;;;;;;8.86;31.93;100872.97;5114945;28;20057;-74
2021/03/25 09:09:04;;;;;;;16.05;7.45;;;;;;;8.68;31.58;100846.31;5113946;28;20097;-80
2021/03/25 09:11:31;;;;;;;15.95;7.85;;;;;;;8.73;32.37;100852.31;5115397;28;20490;-74
2021/03/25 09:13:59;;;;;;;14.00;7.70;;;;;;;8.83;32.33;100850.97;5114913;28;20063;-74
2021/03/25 09:16:31;;;;;;;16.92;7.60;;;;;;;8.91;31.85;100864.81;5114995;28;20030;-74
2021/03/25 09:18:57;;;;;;;16.20;7.90;;;;;;;9.01;32.77;100865.28;5114842;28;20027;-76
2021/03/25 09:21:33;;;;;;;16.58;9.15;;;;;;;9.02;33.12;100851.91;5115050;28;20069;-76
2021/03/25 09:24:02;;;;;;;15.70;8.98;;;;;;;9.30;33.65;100862.19;5115092;28;20385;-75
2021/03/25 09:26:27;;;;;;;16.65;8.13;;;;;;;9.25;31.98;100848.19;5115013;28;20032;-75
2021/03/25 09:28:53;;;;;;;13.75;7.45;;;;;;;9.37;32.32;100854.78;5114914;28;20042;-75
2021/03/25 09:31:20;;;;;;;12.05;6.32;;;;;;;9.32;31.05;100825.69;5114562;28;20482;-75
2021/03/25 09:33:50;;;;;;;11.43;5.78;;;;;;;9.29;29.86;100830.31;5114658;28;20031;-75
2021/03/25 09:36:19;;;;;;;13.30;5.50;;;;;;;9.25;29.69;100847.34;5114330;28;20489;-74
2021/03/25 09:38:48;;;;;;;10.70;5.85;;;;;;;9.23;29.84;100838.56;5115071;27;20039;-74
2021/03/25 09:41:26;;;;;;;11.45;6.10;;;;;;;9.32;30.54;100846.13;5114417;28;20034;-76
2021/03/25 09:44:11;;;;;;;14.82;6.68;;;;;;;9.34;31.06;100846.91;5114698;28;20541;-75
2021/03/25 09:46:59;;;;;;;11.13;6.38;;;;;;;9.34;31.62;100847.78;5103338;28;20047;-75
2021/03/25 09:49:44;;;;;;;11.25;6.38;;;;;;;9.21;32.24;100840.44;5114927;28;20414;-75
2021/03/25 09:52:22;;;;;;;12.98;6.53;;;;;;;9.27;32.95;100837.50;5114393;28;20032;-74
2021/03/25 09:54:57;;;;;;;16.67;7.10;;;;;;;9.41;33.39;100840.38;5114233;27;20110;-75
2021/03/25 09:57:31;;;;;;;13.00;7.05;;;;;;;9.37;33.15;100852.13;5114780;28;20080;-75
2021/03/25 09:59:57;;;;;;;15.55;8.02;;;;;;;9.34;33.92;100846.91;5115964;28;20024;-75
2021/03/25 10:02:37;;;;;;;13.82;7.78;;;;;;;9.42;35.79;100850.09;5114410;28;20046;-77
2021/03/25 10:05:24;;;;;;;13.57;7.70;;;;;;;9.53;36.18;100844.28;5114597;28;20053;-76
2021/03/25 10:07:52;;;;;;;11.98;7.60;;;;;;;9.57;35.42;100841.41;5113109;28;20027;-76
2021/03/25 10:10:23;;;;;;;15.65;8.05;;;;;;;9.65;33.99;100831.28;5114130;28;20482;-74
2021/03/25 10:13:06;;;;;;;12.45;7.80;;;;;;;9.68;34.40;100831.13;5114139;28;20027;-75
2021/03/25 10:15:32;;;;;;;18.80;8.95;;;;;;;9.78;36.06;100833.34;5114485;28;20043;-74
2021/03/25 10:18:07;;;;;;;13.77;8.43;;;;;;;9.71;35.74;100808.78;5114146;28;20386;-74
2021/03/25 10:20:58;;;;;;;14.90;8.45;;;;;;;10.03;35.22;100815.22;5112718;28;20039;-75
2021/03/25 10:23:32;;;;;;;14.20;8.30;;;;;;;10.11;35.48;100813.03;5113769;28;20027;-75
2021/03/25 10:26:01;;;;;;;21.98;9.10;;;;;;;10.29;35.54;100816.63;5113888;28;20024;-75
2021/03/25 10:28:29;;;;;;;15.15;9.05;;;;;;;10.23;35.06;100785.84;5114229;28;20027;-77
2021/03/25 10:31:02;;;;;;;16.35;9.55;;;;;;;10.37;35.46;100802.94;5112750;28;20028;-75
2021/03/25 10:33:29;;;;;;;17.42;9.65;;;;;;;10.53;35.29;100811.88;5112826;28;20106;-76
2021/03/25 10:36:05;;;;;;;15.40;9.20;;;;;;;10.71;35.12;100813.59;5112386;28;20116;-75
2021/03/25 10:38:54;;;;;;;14.75;9.38;;;;;;;10.86;35.09;100802.13;5113669;28;20053;-76
2021/03/25 10:41:24;;;;;;;15.75;9.18;;;;;;;10.92;35.16;100808.09;5112811;28;20042;-76
2021/03/25 10:43:50;;;;;;;19.33;9.65;;;;;;;10.81;34.44;100797.97;5113513;28;20043;-76
2021/03/25 10:46:31;;;;;;;19.55;9.63;;;;;;;10.40;34.65;100738.75;5113647;28;20039;-74
2021/03/25 10:49:02;;;;;;;15.13;9.65;;;;;;;10.68;35.63;100781.72;5113446;28;20058;-77
2021/03/25 10:51:31;;;;;;;17.00;9.15;;;;;;;10.63;35.21;100762.44;5114029;28;20416;-75
2021/03/25 10:54:01;;;;;;;19.10;9.80;;;;;;;10.87;35.17;100790.50;5112169;28;20039;-75
2021/03/25 10:56:32;;;;;;;18.33;9.98;;;;;;;10.63;36.48;100764.25;5113772;28;20059;-75
2021/03/25 10:59:02;;;;;;;18.52;10.25;;;;;;;10.59;37.25;100788.41;5113430;28;20024;-75
2021/03/25 11:01:30;;;;;;;19.60;10.25;;;;;;;10.68;37.31;100771.06;5113706;28;20107;-75
2021/03/25 11:03:57;;;;;;;18.55;11.32;;;;;;;10.70;37.27;100761.16;5113501;28;20039;-76
2021/03/25 11:06:34;;;;;;;20.75;11.60;;;;;;;10.64;37.37;100764.16;5112186;28;20432;-74
2021/03/25 11:09:09;;;;;;;20.60;10.70;;;;;;;10.30;37.69;100736.56;5113530;28;20027;-74
2021/03/25 11:11:37;;;;;;;19.95;9.98;;;;;;;10.72;37.46;100763.78;5113448;28;20030;-74
2021/03/25 11:14:24;;;;;;;20.15;11.50;;;;;;;10.87;37.88;100771.81;5111707;28;20040;-78
2021/03/25 11:16:53;;;;;;;20.60;11.00;;;;;;;10.76;37.14;100768.84;5112878;28;20112;-76
2021/03/25 11:19:20;;;;;;;18.70;10.57;;;;;;;10.84;37.49;100763.97;5113349;28;20057;-75
2021/03/25 11:21:46;;;;;;;18.02;11.02;;;;;;;11.19;36.50;100761.19;5113325;28;20047;-75
2021/03/25 11:24:16;;;;;;;20.23;10.90;;;;;;;11.46;36.36;100759.69;5112963;28;20044;-76
2021/03/25 11:26:43;;;;;;;19.55;10.82;;;;;;;11.54;36.31;100740.56;5112411;28;20390;-75
2021/03/25 11:29:15;;;;;;;17.90;10.90;;;;;;;11.53;36.03;100737.97;5113037;28;20043;-74
2021/03/25 11:31:40;;;;;;;20.02;11.10;;;;;;;11.72;36.10;100760.03;5113562;28;20081;-75
2021/03/25 11:34:05;;;;;;;20.02;12.13;;;;;;;11.73;36.77;100745.72;5116277;28;20035;-76
2021/03/25 11:36:37;;;;;;;18.58;10.32;;;;;;;11.62;37.35;100753.50;5117080;28;20513;-75
2021/03/25 11:39:24;;;;;;;19.65;12.27;;;;;;;11.63;37.27;100733.84;5117154;28;20065;-75
2021/03/25 11:41:53;;;;;;;23.08;12.52;;;;;;;11.52;37.48;100699.72;5117275;28;20139;-75
2021/03/25 11:44:46;;;;;;;21.35;11.80;;;;;;;11.82;37.57;100747.91;5116912;28;20071;-75
2021/03/25 11:47:44;;;;;;;20.08;11.65;;;;;;;11.67;37.89;100746.06;5114107;28;20448;-75
2021/03/25 11:50:31;;;;;;;19.80;12.25;;;;;;;11.81;37.78;100743.50;5115944;28;20513;-74